Time;durP1;ratioP1;P1;durP2;ratioP2;P2;SDS_P1;SDS_P2;PMS_P1;PMS_P2;Temp;Humidity;BMP_temperature;BMP_pressure;BME280_temperature;BME280_humidity;BME280_pressure;Samples;Min_cycle;Max_cycle;Signal;HPM_P1;HPM_P2
2023/05/06 00:01:38;;;;;;;46.80;22.83;;;;;;;;;;5049428;28;20049;-59
2023/05/06 00:04:05;;;;;;;58.27;28.30;;;;;;;;;;5030070;28;20049;-59
2023/05/06 00:06:32;;;;;;;31.67;13.63;;;;;;;;;;5028705;28;20056;-60
2023/05/06 00:08:58;;;;;;;74.07;20.67;;;;;;;;;;5029449;28;20467;-59
2023/05/06 00:11:25;;;;;;;29.57;18.47;;;;;;;;;;5029734;28;20045;-60
2023/05/06 00:13:51;;;;;;;37.07;20.00;;;;;;;;;;5029431;28;20056;-59
2023/05/06 00:16:17;;;;;;;37.83;22.00;;;;;;;;;;5039017;28;20041;-59
2023/05/06 00:18:43;;;;;;;33.50;18.57;;;;;;;;;;5049260;28;20439;-59
2023/05/06 00:21:10;;;;;;;27.17;16.50;;;;;;;;;;5037997;28;20037;-59
2023/05/06 00:23:36;;;;;;;29.60;17.67;;;;;;;;;;5030240;28;20041;-59
2023/05/06 00:26:02;;;;;;;33.73;18.43;;;;;;;;;;5031067;28;20658;-59
2023/05/06 00:28:28;;;;;;;36.97;20.80;;;;;;;;;;5050019;28;20041;-59
2023/05/06 00:30:54;;;;;;;39.10;22.53;;;;;;;;;;5049709;28;20111;-59
2023/05/06 00:33:20;;;;;;;53.93;28.77;;;;;;;;;;5038190;28;20053;-59
2023/05/06 00:35:47;;;;;;;42.67;23.03;;;;;;;;;;5028774;28;20566;-59
2023/05/06 00:38:14;;;;;;;50.77;22.93;;;;;;;;;;5030194;28;20121;-59
2023/05/06 00:40:40;;;;;;;48.10;26.13;;;;;;;;;;5029421;28;20057;-59
2023/05/06 00:43:06;;;;;;;39.73;22.10;;;;;;;;;;5043161;28;20048;-59
2023/05/06 00:45:32;;;;;;;48.90;24.10;;;;;;;;;;5030032;28;20095;-59
2023/05/06 00:47:59;;;;;;;47.93;25.97;;;;;;;;;;5029546;28;20046;-59
2023/05/06 00:50:27;;;;;;;35.77;20.67;;;;;;;;;;5029791;28;20049;-59
2023/05/06 00:52:53;;;;;;;28.97;16.17;;;;;;;;;;5029695;28;20053;-59
2023/05/06 00:55:20;;;;;;;41.27;21.07;;;;;;;;;;5029199;28;20092;-59
2023/05/06 00:57:48;;;;;;;32.10;16.07;;;;;;;;;;5029178;28;20507;-60
2023/05/06 01:00:14;;;;;;;37.27;20.90;;;;;;;;;;5029698;28;20092;-59
2023/05/06 01:02:40;;;;;;;24.77;13.87;;;;;;;;;;5029696;28;20482;-59
2023/05/06 01:05:07;;;;;;;29.57;17.27;;;;;;;;;;5029339;28;20159;-59
2023/05/06 01:07:36;;;;;;;32.70;19.30;;;;;;;;;;5029913;28;20069;-59
2023/05/06 01:10:07;;;;;;;34.87;16.70;;;;;;;;;;5042806;28;20049;-60
2023/05/06 01:12:46;;;;;;;28.80;15.93;;;;;;;;;;5049112;28;20033;-59
2023/05/06 01:15:16;;;;;;;23.60;14.83;;;;;;;;;;5049279;28;20048;-59
2023/05/06 01:17:45;;;;;;;23.70;15.37;;;;;;;;;;5033996;28;20048;-60
2023/05/06 01:20:12;;;;;;;36.13;19.57;;;;;;;;;;5037873;28;20041;-59
2023/05/06 01:22:40;;;;;;;72.97;33.43;;;;;;;;;;5043312;28;20502;-60
2023/05/06 01:25:06;;;;;;;42.67;25.10;;;;;;;;;;5047232;28;20053;-59
2023/05/06 01:27:32;;;;;;;46.93;23.00;;;;;;;;;;5029302;28;20053;-60
2023/05/06 01:29:59;;;;;;;38.30;23.73;;;;;;;;;;5028466;28;20061;-59
2023/05/06 01:32:35;;;;;;;43.97;23.50;;;;;;;;;;5029327;28;20136;-59
2023/05/06 01:35:04;;;;;;;25.97;15.33;;;;;;;;;;5029257;28;20072;-59
2023/05/06 01:37:46;;;;;;;25.40;15.93;;;;;;;;;;5031826;28;20045;-59
2023/05/06 01:40:12;;;;;;;29.07;17.73;;;;;;;;;;5049346;28;20049;-59
2023/05/06 01:42:39;;;;;;;34.33;20.10;;;;;;;;;;5048993;28;20107;-59
2023/05/06 01:45:06;;;;;;;24.03;15.47;;;;;;;;;;5049034;28;20091;-59
2023/05/06 01:47:33;;;;;;;25.47;17.77;;;;;;;;;;5049246;28;20040;-60
2023/05/06 01:50:00;;;;;;;34.20;20.97;;;;;;;;;;5048349;28;20045;-60
2023/05/06 01:52:26;;;;;;;45.90;25.70;;;;;;;;;;5051030;28;20388;-60
2023/05/06 01:54:52;;;;;;;66.17;31.37;;;;;;;;;;5052970;28;20383;-59
2023/05/06 01:57:18;;;;;;;57.93;29.23;;;;;;;;;;5052751;28;20037;-59
2023/05/06 01:59:44;;;;;;;68.30;31.93;;;;;;;;;;5052972;28;20052;-59
2023/05/06 02:02:10;;;;;;;46.50;27.10;;;;;;;;;;5052828;28;20070;-59
2023/05/06 02:04:36;;;;;;;42.50;24.97;;;;;;;;;;5053057;28;20048;-60
2023/05/06 02:07:02;;;;;;;64.57;31.00;;;;;;;;;;5053255;28;20057;-59
2023/05/06 02:09:28;;;;;;;54.73;28.93;;;;;;;;;;5051712;28;20053;-59
2023/05/06 02:11:55;;;;;;;61.27;32.23;;;;;;;;;;5052417;28;20068;-60
2023/05/06 02:14:21;;;;;;;51.27;28.10;;;;;;;;;;5052285;28;20048;-60
2023/05/06 02:16:47;;;;;;;45.37;24.60;;;;;;;;;;5052473;28;20048;-60
2023/05/06 02:19:13;;;;;;;61.53;31.37;;;;;;;;;;5052401;28;20044;-60
2023/05/06 02:21:39;;;;;;;42.10;23.70;;;;;;;;;;5042433;28;20452;-60
2023/05/06 02:24:05;;;;;;;42.57;22.53;;;;;;;;;;5031509;28;20046;-61
2023/05/06 02:26:31;;;;;;;69.90;33.33;;;;;;;;;;5031838;28;20049;-61
2023/05/06 02:28:58;;;;;;;62.30;32.07;;;;;;;;;;5031647;28;20496;-61
2023/05/06 02:31:24;;;;;;;67.50;32.87;;;;;;;;;;5031321;28;20065;-59
2023/05/06 02:33:50;;;;;;;44.07;26.03;;;;;;;;;;5032204;28;20044;-60
2023/05/06 02:36:16;;;;;;;55.00;28.57;;;;;;;;;;5032286;28;20653;-57
2023/05/06 02:38:42;;;;;;;50.13;29.87;;;;;;;;;;5031593;28;20054;-60
2023/05/06 02:41:09;;;;;;;68.63;35.60;;;;;;;;;;5031894;28;20046;-60
2023/05/06 02:43:35;;;;;;;53.80;30.90;;;;;;;;;;5031702;28;20463;-60
2023/05/06 02:46:01;;;;;;;58.17;34.40;;;;;;;;;;5031926;28;20056;-57
2023/05/06 02:48:27;;;;;;;100.43;46.60;;;;;;;;;;5031833;28;20435;-59
2023/05/06 02:50:53;;;;;;;57.43;35.30;;;;;;;;;;5031211;28;20136;-58
2023/05/06 02:53:19;;;;;;;71.77;41.47;;;;;;;;;;5031914;28;20050;-59
2023/05/06 02:55:45;;;;;;;107.60;49.43;;;;;;;;;;5031697;28;20045;-59
2023/05/06 02:58:11;;;;;;;111.80;49.27;;;;;;;;;;5031168;28;20103;-59
2023/05/06 03:00:37;;;;;;;71.67;36.13;;;;;;;;;;5031490;28;20815;-59
2023/05/06 03:03:03;;;;;;;55.37;32.33;;;;;;;;;;5031382;28;20488;-59
2023/05/06 03:05:30;;;;;;;93.83;43.30;;;;;;;;;;5031148;28;20455;-59
2023/05/06 03:07:56;;;;;;;62.17;36.23;;;;;;;;;;5046219;28;20055;-59
2023/05/06 03:10:22;;;;;;;78.83;41.43;;;;;;;;;;5051639;28;20056;-59
2023/05/06 03:12:48;;;;;;;79.10;40.63;;;;;;;;;;5051208;28;20839;-59
2023/05/06 03:15:14;;;;;;;80.87;44.10;;;;;;;;;;5051340;28;20064;-59
2023/05/06 03:17:40;;;;;;;69.00;38.33;;;;;;;;;;5037924;28;20122;-59
2023/05/06 03:20:07;;;;;;;73.93;40.20;;;;;;;;;;5030186;28;20091;-59
2023/05/06 03:22:34;;;;;;;68.37;36.63;;;;;;;;;;5031306;28;20556;-59
2023/05/06 03:25:00;;;;;;;64.53;38.33;;;;;;;;;;5030625;28;20045;-59
2023/05/06 03:27:26;;;;;;;66.13;34.70;;;;;;;;;;5030658;28;20046;-59
2023/05/06 03:29:52;;;;;;;49.43;31.30;;;;;;;;;;5030965;28;20565;-59
2023/05/06 03:32:18;;;;;;;106.37;50.83;;;;;;;;;;5031248;28;20061;-59
2023/05/06 03:34:44;;;;;;;106.40;50.13;;;;;;;;;;5031164;28;20411;-59
2023/05/06 03:37:10;;;;;;;103.53;54.20;;;;;;;;;;5030508;28;20041;-59
2023/05/06 03:39:36;;;;;;;112.63;57.03;;;;;;;;;;5030828;28;20389;-59
2023/05/06 03:42:02;;;;;;;135.87;64.60;;;;;;;;;;5030566;28;20041;-59
2023/05/06 03:44:28;;;;;;;132.20;60.83;;;;;;;;;;5031094;28;20049;-59
2023/05/06 03:46:54;;;;;;;178.53;76.13;;;;;;;;;;5029597;28;20522;-59
2023/05/06 03:49:20;;;;;;;122.57;61.47;;;;;;;;;;5030418;28;20116;-59
2023/05/06 03:51:46;;;;;;;161.10;71.47;;;;;;;;;;5030588;28;20450;-59
2023/05/06 03:54:13;;;;;;;178.13;75.63;;;;;;;;;;5030869;28;20055;-59
2023/05/06 03:56:39;;;;;;;139.23;64.60;;;;;;;;;;5030488;28;20053;-59
2023/05/06 03:59:05;;;;;;;148.40;65.30;;;;;;;;;;5030644;28;20381;-59
2023/05/06 04:01:31;;;;;;;190.43;74.03;;;;;;;;;;5029612;28;20057;-59
2023/05/06 04:03:57;;;;;;;166.87;72.80;;;;;;;;;;5030169;28;20049;-59
2023/05/06 04:06:23;;;;;;;176.60;74.70;;;;;;;;;;5030390;28;20047;-59
2023/05/06 04:08:49;;;;;;;210.53;77.13;;;;;;;;;;5038196;28;20059;-59
2023/05/06 04:11:15;;;;;;;219.97;81.23;;;;;;;;;;5035208;28;20084;-59
2023/05/06 04:13:41;;;;;;;217.10;73.13;;;;;;;;;;5041037;28;20583;-59
2023/05/06 04:16:08;;;;;;;199.63;77.03;;;;;;;;;;5029537;28;20041;-59
2023/05/06 04:18:34;;;;;;;221.67;81.03;;;;;;;;;;5030234;28;20045;-59
2023/05/06 04:21:00;;;;;;;199.23;75.00;;;;;;;;;;5029389;28;20049;-59
2023/05/06 04:23:27;;;;;;;243.23;81.77;;;;;;;;;;5030139;28;20052;-59
2023/05/06 04:25:53;;;;;;;283.00;87.53;;;;;;;;;;5029533;28;20487;-59
2023/05/06 04:28:19;;;;;;;237.33;78.30;;;;;;;;;;5029860;28;20101;-59
2023/05/06 04:30:46;;;;;;;255.83;81.87;;;;;;;;;;5028865;28;20068;-59
2023/05/06 04:33:12;;;;;;;180.40;71.20;;;;;;;;;;5029817;28;20045;-59
2023/05/06 04:35:38;;;;;;;195.20;71.23;;;;;;;;;;5029915;28;20045;-59
2023/05/06 04:38:05;;;;;;;192.40;72.37;;;;;;;;;;5029421;28;20046;-59
2023/05/06 04:40:32;;;;;;;138.90;65.47;;;;;;;;;;5029326;28;20103;-59
2023/05/06 04:42:58;;;;;;;177.43;72.53;;;;;;;;;;5029472;28;20064;-59
2023/05/06 04:45:24;;;;;;;154.17;65.63;;;;;;;;;;5029726;28;20056;-59
2023/05/06 04:47:51;;;;;;;173.97;70.53;;;;;;;;;;5029319;28;20243;-59
2023/05/06 04:50:17;;;;;;;165.50;66.50;;;;;;;;;;5045885;28;20051;-59
2023/05/06 04:52:44;;;;;;;161.07;67.30;;;;;;;;;;5048180;28;20052;-59
2023/05/06 04:55:10;;;;;;;166.93;64.10;;;;;;;;;;5049459;28;20091;-59
2023/05/06 04:57:36;;;;;;;176.27;67.17;;;;;;;;;;5049236;28;20064;-59
2023/05/06 05:00:03;;;;;;;187.80;70.13;;;;;;;;;;5047022;28;20044;-59
2023/05/06 05:02:29;;;;;;;149.90;60.63;;;;;;;;;;5029315;28;20045;-59
2023/05/06 05:04:55;;;;;;;125.43;56.57;;;;;;;;;;5029222;28;20057;-59
2023/05/06 05:07:21;;;;;;;164.93;65.13;;;;;;;;;;5028875;28;20045;-60
2023/05/06 05:09:47;;;;;;;155.37;62.00;;;;;;;;;;5029159;28;20094;-59
2023/05/06 05:12:13;;;;;;;86.50;41.87;;;;;;;;;;5029792;28;20780;-59
2023/05/06 05:14:39;;;;;;;139.47;55.90;;;;;;;;;;5029404;28;20061;-59
2023/05/06 05:17:05;;;;;;;87.47;48.67;;;;;;;;;;5028082;28;20227;-59
2023/05/06 05:19:31;;;;;;;109.20;55.33;;;;;;;;;;5046904;28;20045;-59
2023/05/06 05:21:57;;;;;;;90.50;48.70;;;;;;;;;;5048887;28;20045;-59
2023/05/06 05:24:23;;;;;;;88.77;48.77;;;;;;;;;;5048559;28;20060;-59
2023/05/06 05:26:49;;;;;;;107.50;53.40;;;;;;;;;;5040967;28;20048;-59
2023/05/06 05:29:15;;;;;;;88.23;49.17;;;;;;;;;;5032633;28;20148;-59
2023/05/06 05:31:41;;;;;;;83.13;48.13;;;;;;;;;;5028544;28;20184;-59
2023/05/06 05:34:07;;;;;;;83.53;48.17;;;;;;;;;;5033639;28;20037;-59
2023/05/06 05:36:33;;;;;;;89.30;46.80;;;;;;;;;;5046356;28;20041;-59
2023/05/06 05:38:59;;;;;;;97.13;49.13;;;;;;;;;;5048252;28;20045;-59
2023/05/06 05:41:26;;;;;;;92.97;49.63;;;;;;;;;;5048976;28;20518;-59
2023/05/06 05:43:52;;;;;;;79.17;44.27;;;;;;;;;;5048978;28;20041;-59
2023/05/06 05:46:18;;;;;;;69.67;40.57;;;;;;;;;;5042936;28;20049;-59
2023/05/06 05:48:44;;;;;;;84.73;45.03;;;;;;;;;;5028062;28;20587;-59
2023/05/06 05:51:10;;;;;;;88.60;45.17;;;;;;;;;;5047482;28;20076;-59
2023/05/06 05:53:36;;;;;;;89.77;47.17;;;;;;;;;;5032075;28;20079;-60
2023/05/06 05:56:02;;;;;;;85.23;44.80;;;;;;;;;;5042573;28;20038;-60
2023/05/06 05:58:28;;;;;;;81.43;44.20;;;;;;;;;;5028588;28;20103;-59
2023/05/06 06:00:55;;;;;;;56.70;34.83;;;;;;;;;;5028295;28;20046;-59
2023/05/06 06:03:21;;;;;;;68.87;39.33;;;;;;;;;;5028898;28;20056;-59
2023/05/06 06:05:48;;;;;;;56.80;36.30;;;;;;;;;;5028828;28;20050;-59
2023/05/06 06:08:17;;;;;;;74.13;40.67;;;;;;;;;;5047454;28;20503;-59
2023/05/06 06:10:43;;;;;;;738.47;163.47;;;;;;;;;;5041322;28;20052;-59
2023/05/06 06:13:09;;;;;;;58.77;37.57;;;;;;;;;;5028559;28;20503;-59
2023/05/06 06:15:35;;;;;;;63.00;37.03;;;;;;;;;;5028428;28;20053;-60
2023/05/06 06:18:01;;;;;;;55.30;34.83;;;;;;;;;;5031050;28;20496;-59
2023/05/06 06:20:27;;;;;;;54.10;34.07;;;;;;;;;;5028092;28;20068;-59
2023/05/06 06:22:53;;;;;;;60.70;36.10;;;;;;;;;;5028360;28;20545;-60
2023/05/06 06:25:20;;;;;;;66.27;37.10;;;;;;;;;;5028294;28;20644;-59
2023/05/06 06:27:46;;;;;;;64.53;36.97;;;;;;;;;;5028291;28;20045;-59
2023/05/06 06:30:12;;;;;;;63.17;37.97;;;;;;;;;;5034958;28;20526;-60
2023/05/06 06:32:49;;;;;;;73.23;39.37;;;;;;;;;;5056337;28;20053;-60
2023/05/06 06:35:15;;;;;;;68.97;37.33;;;;;;;;;;5055196;28;20110;-59
2023/05/06 06:37:41;;;;;;;68.80;36.67;;;;;;;;;;5046745;28;20044;-59
2023/05/06 06:40:09;;;;;;;66.30;34.30;;;;;;;;;;5040280;28;20041;-59
2023/05/06 06:42:35;;;;;;;62.40;32.23;;;;;;;;;;5041101;28;20041;-59
2023/05/06 06:45:01;;;;;;;51.87;29.73;;;;;;;;;;5039511;28;20045;-60
2023/05/06 06:47:27;;;;;;;51.30;30.47;;;;;;;;;;5040808;28;20053;-60
2023/05/06 06:49:53;;;;;;;52.77;29.93;;;;;;;;;;5041436;28;20049;-60
2023/05/06 06:52:19;;;;;;;45.50;26.97;;;;;;;;;;5039425;28;20045;-59
2023/05/06 06:54:45;;;;;;;35.27;24.23;;;;;;;;;;5040456;28;20052;-60
2023/05/06 06:57:11;;;;;;;35.07;23.37;;;;;;;;;;5045865;28;20504;-59
2023/05/06 06:59:37;;;;;;;33.53;21.73;;;;;;;;;;5045411;28;20049;-59
2023/05/06 07:02:03;;;;;;;28.13;20.03;;;;;;;;;;5056655;28;20044;-61
2023/05/06 07:04:29;;;;;;;22.50;17.47;;;;;;;;;;5061573;28;20048;-59
2023/05/06 07:06:55;;;;;;;20.67;15.97;;;;;;;;;;5060968;28;20044;-59
2023/05/06 07:09:21;;;;;;;23.97;18.70;;;;;;;;;;5058949;28;20041;-59
2023/05/06 07:11:48;;;;;;;21.77;16.53;;;;;;;;;;5060139;28;20048;-59
2023/05/06 07:14:14;;;;;;;18.77;15.83;;;;;;;;;;5060611;28;20041;-59
2023/05/06 07:16:40;;;;;;;18.03;15.00;;;;;;;;;;5061162;28;20062;-60
2023/05/06 07:19:06;;;;;;;16.60;13.53;;;;;;;;;;5058845;28;20456;-59
2023/05/06 07:21:32;;;;;;;19.37;15.67;;;;;;;;;;5059495;28;20047;-59
2023/05/06 07:23:58;;;;;;;20.57;16.47;;;;;;;;;;5060966;28;20048;-59
2023/05/06 07:26:25;;;;;;;22.97;16.20;;;;;;;;;;5065446;28;20060;-60
2023/05/06 07:28:51;;;;;;;21.47;15.10;;;;;;;;;;5064151;28;20049;-60
2023/05/06 07:31:19;;;;;;;22.77;18.33;;;;;;;;;;5058100;28;20052;-60
2023/05/06 07:33:48;;;;;;;23.77;16.57;;;;;;;;;;5055932;28;20163;-59
2023/05/06 07:36:15;;;;;;;17.43;15.47;;;;;;;;;;5058479;28;20056;-59
2023/05/06 07:38:41;;;;;;;18.63;16.07;;;;;;;;;;5060373;28;20075;-59
2023/05/06 07:41:07;;;;;;;22.20;15.43;;;;;;;;;;5060237;28;20048;-59
2023/05/06 07:43:33;;;;;;;17.97;13.83;;;;;;;;;;5053025;28;20045;-59
2023/05/06 07:46:02;;;;;;;16.50;14.50;;;;;;;;;;5049930;28;21045;-59
2023/05/06 07:48:28;;;;;;;16.73;13.93;;;;;;;;;;5050424;28;20041;-60
2023/05/06 07:50:55;;;;;;;16.77;14.97;;;;;;;;;;5050245;28;20452;-59
2023/05/06 07:53:21;;;;;;;16.37;13.87;;;;;;;;;;5055697;28;20423;-60
2023/05/06 07:55:47;;;;;;;16.37;13.07;;;;;;;;;;5051434;28;20048;-60
2023/05/06 07:58:14;;;;;;;12.50;10.97;;;;;;;;;;5065984;28;21050;-60
2023/05/06 08:00:40;;;;;;;12.17;10.23;;;;;;;;;;5069892;28;20052;-60
2023/05/06 08:03:06;;;;;;;9.23;8.27;;;;;;;;;;5070001;28;20055;-59
2023/05/06 08:05:32;;;;;;;10.73;9.20;;;;;;;;;;5069959;28;20047;-59
2023/05/06 08:07:58;;;;;;;11.13;8.40;;;;;;;;;;5070146;28;20037;-60
2023/05/06 08:10:24;;;;;;;9.40;8.23;;;;;;;;;;5070177;28;20048;-60
2023/05/06 08:12:50;;;;;;;9.30;7.37;;;;;;;;;;5070272;28;20044;-60
2023/05/06 08:15:16;;;;;;;12.07;8.50;;;;;;;;;;5069696;28;20055;-60
2023/05/06 08:17:42;;;;;;;12.33;9.70;;;;;;;;;;5069907;28;20045;-60
2023/05/06 08:20:09;;;;;;;10.23;8.27;;;;;;;;;;5069655;28;20048;-60
2023/05/06 08:22:35;;;;;;;12.10;9.80;;;;;;;;;;5069442;28;20052;-58
2023/05/06 08:25:02;;;;;;;13.30;9.70;;;;;;;;;;5069609;28;20045;-60
2023/05/06 08:27:28;;;;;;;11.00;8.80;;;;;;;;;;5069610;28;20097;-58
2023/05/06 08:29:54;;;;;;;10.83;9.70;;;;;;;;;;5069608;28;20064;-59
2023/05/06 08:32:20;;;;;;;13.67;10.13;;;;;;;;;;5066392;28;20139;-59
2023/05/06 08:34:46;;;;;;;10.50;9.40;;;;;;;;;;5058893;28;20060;-59
2023/05/06 08:37:12;;;;;;;10.93;9.17;;;;;;;;;;5057585;28;20103;-59
2023/05/06 08:39:38;;;;;;;9.90;8.77;;;;;;;;;;5052830;28;20557;-59
2023/05/06 08:42:05;;;;;;;11.97;9.17;;;;;;;;;;5057884;28;20399;-59
2023/05/06 08:44:32;;;;;;;11.00;8.43;;;;;;;;;;5057796;28;20445;-59
2023/05/06 08:46:58;;;;;;;10.50;8.13;;;;;;;;;;5056751;28;20087;-59
2023/05/06 08:49:25;;;;;;;11.80;7.80;;;;;;;;;;5055033;28;20135;-59
2023/05/06 08:51:51;;;;;;;11.63;7.70;;;;;;;;;;5056182;28;20411;-59
2023/05/06 08:54:17;;;;;;;8.00;6.87;;;;;;;;;;5056041;28;20052;-59
2023/05/06 08:56:45;;;;;;;11.30;6.20;;;;;;;;;;5057371;28;20044;-58
2023/05/06 08:59:12;;;;;;;10.40;6.87;;;;;;;;;;5055889;28;20033;-59
2023/05/06 09:01:39;;;;;;;10.43;7.53;;;;;;;;;;5055018;28;20045;-59
2023/05/06 09:04:06;;;;;;;9.53;7.27;;;;;;;;;;5057873;28;20052;-60
2023/05/06 09:06:33;;;;;;;10.77;7.70;;;;;;;;;;5057986;28;20059;-60
2023/05/06 09:08:59;;;;;;;10.60;8.60;;;;;;;;;;5057199;28;20045;-59
2023/05/06 09:11:27;;;;;;;13.17;9.47;;;;;;;;;;5052663;28;20418;-60
2023/05/06 09:14:13;;;;;;;13.27;9.73;;;;;;;;;;5056397;28;20043;-60
2023/05/06 09:16:41;;;;;;;15.00;9.47;;;;;;;;;;5057497;28;20099;-59
2023/05/06 09:19:07;;;;;;;12.37;10.13;;;;;;;;;;5053808;28;20574;-59
2023/05/06 09:21:40;;;;;;;13.43;10.10;;;;;;;;;;5057427;28;20074;-61
2023/05/06 09:24:08;;;;;;;12.37;10.07;;;;;;;;;;5053798;28;20041;-61
2023/05/06 09:26:35;;;;;;;13.00;9.20;;;;;;;;;;5057154;28;20045;-61
2023/05/06 09:29:01;;;;;;;12.47;9.77;;;;;;;;;;5058029;28;20110;-61
2023/05/06 09:31:28;;;;;;;17.53;10.97;;;;;;;;;;5058026;28;20554;-61
2023/05/06 09:33:55;;;;;;;13.80;10.97;;;;;;;;;;5057261;28;20074;-61
2023/05/06 09:36:22;;;;;;;14.67;11.07;;;;;;;;;;5056087;28;20051;-61
2023/05/06 09:38:48;;;;;;;14.03;10.17;;;;;;;;;;5057605;28;20076;-61
2023/05/06 09:41:15;;;;;;;13.70;10.67;;;;;;;;;;5057629;28;20453;-62
2023/05/06 09:43:46;;;;;;;12.67;9.30;;;;;;;;;;5054297;28;20431;-61
2023/05/06 09:46:13;;;;;;;11.33;8.17;;;;;;;;;;5057092;28;20041;-61
2023/05/06 09:48:39;;;;;;;11.53;8.40;;;;;;;;;;5058164;28;20037;-61
2023/05/06 09:51:06;;;;;;;10.70;8.43;;;;;;;;;;5058233;28;20045;-61
2023/05/06 09:53:33;;;;;;;13.60;8.47;;;;;;;;;;5053726;28;20041;-61
2023/05/06 09:56:00;;;;;;;11.10;8.83;;;;;;;;;;5057948;28;20040;-63
2023/05/06 09:58:27;;;;;;;11.03;8.27;;;;;;;;;;5055554;28;20444;-61
2023/05/06 10:00:54;;;;;;;11.80;8.40;;;;;;;;;;5055438;28;20094;-61
2023/05/06 10:03:21;;;;;;;11.97;9.33;;;;;;;;;;5053112;28;20430;-61
2023/05/06 10:05:48;;;;;;;12.63;9.63;;;;;;;;;;5057641;28;20518;-61
2023/05/06 10:08:17;;;;;;;11.87;9.23;;;;;;;;;;5055094;28;20049;-61
2023/05/06 10:10:43;;;;;;;10.93;8.40;;;;;;;;;;5059240;28;20056;-61
2023/05/06 10:13:10;;;;;;;11.97;7.97;;;;;;;;;;5057723;28;20052;-61
2023/05/06 10:15:37;;;;;;;11.53;8.67;;;;;;;;;;5061453;28;20037;-62
2023/05/06 10:18:05;;;;;;;10.90;9.50;;;;;;;;;;5061439;28;20045;-62
2023/05/06 10:20:33;;;;;;;9.57;8.00;;;;;;;;;;5059336;28;20056;-62
2023/05/06 10:23:00;;;;;;;10.65;7.80;;;;;;;;;;5060295;28;20124;-61
2023/05/06 10:25:32;;;;;;;11.00;8.75;;;;;;;;;;5060011;28;20053;-61
2023/05/06 10:27:58;;;;;;;12.15;10.23;;;;;;;;;;5057331;28;20446;-61
2023/05/06 10:30:26;;;;;;;12.25;9.20;;;;;;;;;;5051642;28;20061;-59
2023/05/06 10:32:54;;;;;;;13.95;9.95;;;;;;;;;;5051916;28;20049;-59
2023/05/06 10:35:40;;;;;;;13.10;8.35;;;;;;;;;;5051763;28;20036;-61
2023/05/06 10:38:08;;;;;;;13.98;9.50;;;;;;;;;;5051111;28;20055;-59
2023/05/06 10:40:35;;;;;;;12.45;10.40;;;;;;;;;;5051896;28;20041;-59
2023/05/06 10:43:20;;;;;;;11.07;9.07;;;;;;;;;;5050609;28;20041;-60
2023/05/06 10:46:01;;;;;;;11.95;9.00;;;;;;;;;;5049235;28;20053;-60
2023/05/06 10:48:28;;;;;;;11.73;9.88;;;;;;;;;;5051077;28;20107;-59
2023/05/06 10:51:12;;;;;;;11.43;10.05;;;;;;;;;;5050798;28;20694;-59
2023/05/06 10:53:57;;;;;;;12.50;9.40;;;;;;;;;;5061760;28;20048;-61
2023/05/06 10:56:24;;;;;;;12.13;8.73;;;;;;;;;;5058540;28;20053;-61
2023/05/06 10:58:50;;;;;;;12.37;8.70;;;;;;;;;;5061712;28;20419;-59
2023/05/06 11:01:16;;;;;;;9.48;8.32;;;;;;;;;;5057801;28;20497;-61
2023/05/06 11:03:45;;;;;;;10.60;8.20;;;;;;;;;;5054176;28;20047;-61
2023/05/06 11:06:11;;;;;;;9.52;7.90;;;;;;;;;;5056281;28;20044;-60
2023/05/06 11:08:38;;;;;;;17.35;8.30;;;;;;;;;;5061817;28;20049;-60
2023/05/06 11:11:22;;;;;;;10.05;8.15;;;;;;;;;;5058971;28;20098;-60
2023/05/06 11:13:52;;;;;;;11.00;9.40;;;;;;;;;;5057614;28;20060;-60
2023/05/06 11:16:38;;;;;;;10.83;8.57;;;;;;;;;;5058644;28;20053;-60
2023/05/06 11:19:04;;;;;;;10.33;7.90;;;;;;;;;;5056504;28;20045;-61
2023/05/06 11:21:31;;;;;;;10.80;8.37;;;;;;;;;;5062252;28;20068;-61
2023/05/06 11:23:57;;;;;;;9.70;8.70;;;;;;;;;;5057195;28;20111;-62
2023/05/06 11:26:23;;;;;;;12.25;8.25;;;;;;;;;;5059753;28;20107;-62
2023/05/06 11:28:50;;;;;;;10.20;7.80;;;;;;;;;;5056242;28;20048;-62
2023/05/06 11:31:16;;;;;;;9.50;7.15;;;;;;;;;;5057037;28;20067;-62
2023/05/06 11:33:47;;;;;;;9.73;7.78;;;;;;;;;;5057554;28;20043;-59
2023/05/06 11:36:20;;;;;;;12.80;8.40;;;;;;;;;;5058300;28;20487;-61
2023/05/06 11:38:51;;;;;;;11.27;9.02;;;;;;;;;;5056679;28;20420;-60
2023/05/06 11:41:17;;;;;;;10.60;7.75;;;;;;;;;;5058500;28;20055;-61
2023/05/06 11:43:48;;;;;;;8.57;6.25;;;;;;;;;;5056800;28;20041;-61
2023/05/06 11:46:15;;;;;;;8.43;5.63;;;;;;;;;;5055636;28;20048;-60
2023/05/06 11:48:42;;;;;;;8.40;5.63;;;;;;;;;;5059655;28;20119;-60
2023/05/06 11:51:08;;;;;;;9.57;6.82;;;;;;;;;;5054104;28;20041;-60
2023/05/06 11:53:35;;;;;;;11.20;7.72;;;;;;;;;;5054674;28;20051;-60
2023/05/06 11:56:01;;;;;;;10.55;7.18;;;;;;;;;;5058149;28;20514;-60
2023/05/06 11:58:29;;;;;;;9.85;6.85;;;;;;;;;;5057673;28;20049;-60
2023/05/06 12:00:56;;;;;;;9.05;6.30;;;;;;;;;;5058919;28;20098;-60
2023/05/06 12:03:22;;;;;;;11.35;7.15;;;;;;;;;;5052952;28;20091;-60
2023/05/06 12:05:49;;;;;;;10.32;7.00;;;;;;;;;;5061349;28;20122;-60
2023/05/06 12:08:22;;;;;;;9.38;6.68;;;;;;;;;;5061295;28;20049;-61
2023/05/06 12:10:48;;;;;;;;;;;;;;;;;;5059326;28;20091;-60
2023/05/06 12:13:15;;;;;;;9.07;7.13;;;;;;;;;;5063749;28;19975;-60
2023/05/06 12:15:41;;;;;;;11.52;8.80;;;;;;;;;;5062532;28;20106;-60
2023/05/06 12:18:08;;;;;;;11.43;7.35;;;;;;;;;;5063582;28;20106;-61
2023/05/06 12:20:34;;;;;;;9.32;6.97;;;;;;;;;;5069873;28;20548;-60
2023/05/06 12:23:07;;;;;;;8.13;5.25;;;;;;;;;;5069539;28;20090;-60
2023/05/06 12:25:33;;;;;;;8.55;5.55;;;;;;;;;;5069384;28;20075;-60
2023/05/06 12:27:59;;;;;;;7.10;5.82;;;;;;;;;;5068869;28;20056;-60
2023/05/06 12:30:33;;;;;;;10.73;5.70;;;;;;;;;;5069349;28;20056;-60
2023/05/06 12:32:59;;;;;;;8.70;6.35;;;;;;;;;;5069163;28;20425;-60
2023/05/06 12:35:26;;;;;;;11.90;6.80;;;;;;;;;;5068800;28;20099;-60
2023/05/06 12:37:52;;;;;;;8.75;7.15;;;;;;;;;;5069134;28;20040;-60
2023/05/06 12:40:18;;;;;;;9.40;6.63;;;;;;;;;;5068962;28;20048;-60
2023/05/06 12:42:46;;;;;;;8.52;6.55;;;;;;;;;;5069340;28;20036;-60
2023/05/06 12:45:13;;;;;;;10.88;6.00;;;;;;;;;;5062451;28;20045;-61
2023/05/06 12:47:39;;;;;;;9.07;6.30;;;;;;;;;;5057345;28;20044;-61
2023/05/06 12:50:05;;;;;;;8.93;6.05;;;;;;;;;;5058600;28;20165;-61
2023/05/06 12:52:31;;;;;;;8.45;6.68;;;;;;;;;;5057030;28;20079;-60
2023/05/06 12:55:00;;;;;;;11.52;6.65;;;;;;;;;;5059333;28;20041;-61
2023/05/06 12:57:26;;;;;;;7.25;5.82;;;;;;;;;;5059893;28;20044;-61
2023/05/06 12:59:52;;;;;;;6.88;5.35;;;;;;;;;;5052882;28;20639;-61
2023/05/06 13:02:18;;;;;;;8.43;5.30;;;;;;;;;;5058662;28;20418;-61
2023/05/06 13:04:45;;;;;;;7.85;5.18;;;;;;;;;;5053925;28;20049;-60
2023/05/06 13:07:12;;;;;;;6.78;4.82;;;;;;;;;;5057510;28;20047;-60
2023/05/06 13:09:38;;;;;;;10.23;6.55;;;;;;;;;;5056733;28;20037;-61
2023/05/06 13:12:04;;;;;;;7.65;6.28;;;;;;;;;;5055444;28;20511;-61
2023/05/06 13:14:30;;;;;;;7.03;5.53;;;;;;;;;;5055013;28;20041;-61
2023/05/06 13:16:59;;;;;;;6.22;5.18;;;;;;;;;;5053703;28;20091;-61
2023/05/06 13:19:25;;;;;;;7.88;5.28;;;;;;;;;;5056398;28;20041;-60
2023/05/06 13:21:51;;;;;;;8.07;5.35;;;;;;;;;;5060377;28;20044;-60
2023/05/06 13:24:17;;;;;;;9.13;5.57;;;;;;;;;;5057405;28;20400;-60
2023/05/06 13:26:43;;;;;;;6.40;4.53;;;;;;;;;;5054315;28;20045;-60
2023/05/06 13:29:10;;;;;;;7.78;5.50;;;;;;;;;;5055279;28;20052;-60
2023/05/06 13:31:36;;;;;;;11.88;8.00;;;;;;;;;;5058421;28;20503;-61
2023/05/06 13:34:02;;;;;;;10.45;7.07;;;;;;;;;;5060331;28;20041;-60
2023/05/06 13:36:28;;;;;;;9.75;6.32;;;;;;;;;;5055863;28;20048;-60
2023/05/06 13:38:55;;;;;;;9.13;6.78;;;;;;;;;;5054271;28;20682;-60
2023/05/06 13:41:21;;;;;;;9.80;6.97;;;;;;;;;;5057418;28;20049;-60
2023/05/06 13:43:47;;;;;;;9.43;6.80;;;;;;;;;;5055725;28;20456;-60
2023/05/06 13:46:13;;;;;;;8.48;6.45;;;;;;;;;;5056828;28;20458;-61
2023/05/06 13:48:39;;;;;;;8.95;6.28;;;;;;;;;;5059572;28;20052;-60
2023/05/06 13:51:05;;;;;;;9.43;6.45;;;;;;;;;;5059035;28;20487;-60
2023/05/06 13:53:31;;;;;;;8.63;6.13;;;;;;;;;;5069811;28;20055;-60
2023/05/06 13:55:57;;;;;;;9.02;6.43;;;;;;;;;;5070316;28;20055;-60
2023/05/06 13:58:23;;;;;;;7.72;5.90;;;;;;;;;;5063077;28;20048;-60
2023/05/06 14:00:49;;;;;;;10.82;6.45;;;;;;;;;;5060647;28;20056;-60
2023/05/06 14:03:15;;;;;;;9.05;6.20;;;;;;;;;;5062119;28;20091;-60
2023/05/06 14:05:42;;;;;;;10.40;6.90;;;;;;;;;;5054364;28;20071;-60
2023/05/06 14:08:08;;;;;;;8.25;6.45;;;;;;;;;;5061284;28;20044;-60
2023/05/06 14:10:34;;;;;;;9.38;6.53;;;;;;;;;;5062765;28;20045;-60
2023/05/06 14:13:00;;;;;;;11.27;6.40;;;;;;;;;;5058983;28;20193;-60
2023/05/06 14:15:26;;;;;;;8.82;5.20;;;;;;;;;;5063478;28;20041;-60
2023/05/06 14:17:52;;;;;;;7.38;5.57;;;;;;;;;;5059942;28;20041;-60
2023/05/06 14:20:19;;;;;;;7.60;4.95;;;;;;;;;;5057483;28;20049;-60
2023/05/06 14:22:45;;;;;;;9.38;5.65;;;;;;;;;;5060850;28;20142;-60